sensor_id;sensor_type;location;lat;lon;timestamp;P1;durP1;ratioP1;P2;durP2;ratioP2
16029;SDS011;34770;49.272;11.070;2022-12-10T00:00:17;21.03;;;13.67;;
16029;SDS011;34770;49.272;11.070;2022-12-10T00:02:42;21.67;;;15.63;;
16029;SDS011;34770;49.272;11.070;2022-12-10T00:05:08;20.60;;;15.37;;
16029;SDS011;34770;49.272;11.070;2022-12-10T00:07:33;19.73;;;13.13;;
16029;SDS011;34770;49.272;11.070;2022-12-10T00:09:59;20.33;;;13.87;;
16029;SDS011;34770;49.272;11.070;2022-12-10T00:12:24;21.57;;;14.60;;
16029;SDS011;34770;49.272;11.070;2022-12-10T00:14:49;23.67;;;14.17;;
16029;SDS011;34770;49.272;11.070;2022-12-10T00:17:15;21.20;;;14.23;;
16029;SDS011;34770;49.272;11.070;2022-12-10T00:19:40;20.00;;;13.97;;
16029;SDS011;34770;49.272;11.070;2022-12-10T00:22:05;22.13;;;14.17;;
16029;SDS011;34770;49.272;11.070;2022-12-10T00:24:31;21.93;;;13.57;;
16029;SDS011;34770;49.272;11.070;2022-12-10T00:26:56;21.47;;;13.47;;
16029;SDS011;34770;49.272;11.070;2022-12-10T00:29:21;19.03;;;13.13;;
16029;SDS011;34770;49.272;11.070;2022-12-10T00:31:47;21.07;;;13.57;;
16029;SDS011;34770;49.272;11.070;2022-12-10T00:34:13;18.17;;;12.63;;
16029;SDS011;34770;49.272;11.070;2022-12-10T00:36:40;20.97;;;13.80;;
16029;SDS011;34770;49.272;11.070;2022-12-10T00:39:08;18.57;;;13.73;;
16029;SDS011;34770;49.272;11.070;2022-12-10T00:41:34;18.93;;;13.20;;
16029;SDS011;34770;49.272;11.070;2022-12-10T00:44:00;20.70;;;14.00;;
16029;SDS011;34770;49.272;11.070;2022-12-10T00:46:25;23.37;;;15.33;;
16029;SDS011;34770;49.272;11.070;2022-12-10T00:48:51;25.20;;;15.60;;
16029;SDS011;34770;49.272;11.070;2022-12-10T00:51:18;19.07;;;13.40;;
16029;SDS011;34770;49.272;11.070;2022-12-10T00:53:45;23.10;;;14.63;;
16029;SDS011;34770;49.272;11.070;2022-12-10T00:56:12;22.40;;;13.37;;
16029;SDS011;34770;49.272;11.070;2022-12-10T00:58:39;21.60;;;14.80;;
16029;SDS011;34770;49.272;11.070;2022-12-10T01:03:57;21.47;;;14.93;;
16029;SDS011;34770;49.272;11.070;2022-12-10T01:06:31;24.13;;;14.53;;
16029;SDS011;34770;49.272;11.070;2022-12-10T01:08:59;20.77;;;13.63;;
16029;SDS011;34770;49.272;11.070;2022-12-10T01:11:28;22.77;;;14.30;;
16029;SDS011;34770;49.272;11.070;2022-12-10T01:13:56;22.80;;;15.33;;
16029;SDS011;34770;49.272;11.070;2022-12-10T01:16:22;19.67;;;14.50;;
16029;SDS011;34770;49.272;11.070;2022-12-10T01:18:48;21.30;;;15.30;;
16029;SDS011;34770;49.272;11.070;2022-12-10T01:21:14;21.37;;;14.30;;
16029;SDS011;34770;49.272;11.070;2022-12-10T01:23:42;18.53;;;12.80;;
16029;SDS011;34770;49.272;11.070;2022-12-10T01:26:10;25.13;;;16.13;;
16029;SDS011;34770;49.272;11.070;2022-12-10T01:28:38;25.43;;;15.70;;
16029;SDS011;34770;49.272;11.070;2022-12-10T01:31:06;23.67;;;16.00;;
16029;SDS011;34770;49.272;11.070;2022-12-10T01:34:00;22.27;;;13.93;;
16029;SDS011;34770;49.272;11.070;2022-12-10T01:36:29;21.23;;;13.67;;
16029;SDS011;34770;49.272;11.070;2022-12-10T01:38:57;20.83;;;14.60;;
16029;SDS011;34770;49.272;11.070;2022-12-10T01:41:31;19.30;;;13.60;;
16029;SDS011;34770;49.272;11.070;2022-12-10T01:46:48;20.87;;;13.60;;
16029;SDS011;34770;49.272;11.070;2022-12-10T01:49:18;24.47;;;14.67;;
16029;SDS011;34770;49.272;11.070;2022-12-10T01:51:53;22.00;;;14.00;;
16029;SDS011;34770;49.272;11.070;2022-12-10T01:54:21;24.30;;;15.70;;
16029;SDS011;34770;49.272;11.070;2022-12-10T01:56:58;21.10;;;13.63;;
16029;SDS011;34770;49.272;11.070;2022-12-10T01:59:29;21.70;;;13.70;;
16029;SDS011;34770;49.272;11.070;2022-12-10T02:07:02;20.60;;;14.73;;
16029;SDS011;34770;49.272;11.070;2022-12-10T02:09:35;20.70;;;12.70;;
16029;SDS011;34770;49.272;11.070;2022-12-10T02:12:18;18.63;;;13.63;;
16029;SDS011;34770;49.272;11.070;2022-12-10T02:14:54;18.37;;;12.80;;
16029;SDS011;34770;49.272;11.070;2022-12-10T02:17:25;20.03;;;13.17;;
16029;SDS011;34770;49.272;11.070;2022-12-10T02:20:14;20.83;;;12.90;;
16029;SDS011;34770;49.272;11.070;2022-12-10T02:22:51;18.77;;;13.60;;
16029;SDS011;34770;49.272;11.070;2022-12-10T02:25:23;23.93;;;14.97;;
16029;SDS011;34770;49.272;11.070;2022-12-10T02:27:58;21.73;;;14.30;;
16029;SDS011;34770;49.272;11.070;2022-12-10T02:30:35;19.67;;;14.37;;
16029;SDS011;34770;49.272;11.070;2022-12-10T02:33:03;20.80;;;13.80;;
16029;SDS011;34770;49.272;11.070;2022-12-10T02:35:33;16.67;;;12.67;;
16029;SDS011;34770;49.272;11.070;2022-12-10T02:38:11;20.63;;;12.90;;
16029;SDS011;34770;49.272;11.070;2022-12-10T02:40:41;20.20;;;13.70;;
16029;SDS011;34770;49.272;11.070;2022-12-10T02:43:11;20.83;;;12.57;;
16029;SDS011;34770;49.272;11.070;2022-12-10T02:45:39;21.10;;;13.73;;
16029;SDS011;34770;49.272;11.070;2022-12-10T02:48:07;21.13;;;13.77;;
16029;SDS011;34770;49.272;11.070;2022-12-10T02:50:33;20.10;;;13.07;;
16029;SDS011;34770;49.272;11.070;2022-12-10T02:52:59;20.57;;;13.60;;
16029;SDS011;34770;49.272;11.070;2022-12-10T02:55:24;20.83;;;13.50;;
16029;SDS011;34770;49.272;11.070;2022-12-10T03:00:31;18.87;;;13.27;;
16029;SDS011;34770;49.272;11.070;2022-12-10T03:03:19;26.67;;;16.23;;
16029;SDS011;34770;49.272;11.070;2022-12-10T03:05:58;22.00;;;14.07;;
16029;SDS011;34770;49.272;11.070;2022-12-10T03:11:30;20.93;;;14.13;;
16029;SDS011;34770;49.272;11.070;2022-12-10T03:14:04;24.23;;;15.83;;
16029;SDS011;34770;49.272;11.070;2022-12-10T03:16:38;22.33;;;16.30;;
16029;SDS011;34770;49.272;11.070;2022-12-10T03:19:11;21.47;;;14.40;;
16029;SDS011;34770;49.272;11.070;2022-12-10T03:21:39;26.30;;;16.83;;
16029;SDS011;34770;49.272;11.070;2022-12-10T03:24:06;22.17;;;14.97;;
16029;SDS011;34770;49.272;11.070;2022-12-10T03:26:37;27.83;;;16.03;;
16029;SDS011;34770;49.272;11.070;2022-12-10T03:29:05;21.97;;;14.87;;
16029;SDS011;34770;49.272;11.070;2022-12-10T03:31:33;22.47;;;14.70;;
16029;SDS011;34770;49.272;11.070;2022-12-10T03:34:02;23.27;;;16.33;;
16029;SDS011;34770;49.272;11.070;2022-12-10T03:36:30;24.77;;;16.33;;
16029;SDS011;34770;49.272;11.070;2022-12-10T03:38:58;25.00;;;14.43;;
16029;SDS011;34770;49.272;11.070;2022-12-10T03:41:30;25.50;;;15.73;;
16029;SDS011;34770;49.272;11.070;2022-12-10T03:44:10;25.77;;;15.37;;
16029;SDS011;34770;49.272;11.070;2022-12-10T03:46:38;26.80;;;16.87;;
16029;SDS011;34770;49.272;11.070;2022-12-10T03:49:05;22.80;;;16.33;;
16029;SDS011;34770;49.272;11.070;2022-12-10T03:51:32;25.87;;;16.33;;
16029;SDS011;34770;49.272;11.070;2022-12-10T03:53:59;26.93;;;16.00;;
16029;SDS011;34770;49.272;11.070;2022-12-10T03:56:25;23.70;;;16.17;;
16029;SDS011;34770;49.272;11.070;2022-12-10T03:58:50;22.67;;;15.57;;
16029;SDS011;34770;49.272;11.070;2022-12-10T04:01:16;21.13;;;15.47;;
16029;SDS011;34770;49.272;11.070;2022-12-10T04:03:42;27.87;;;15.93;;
16029;SDS011;34770;49.272;11.070;2022-12-10T04:06:19;25.27;;;15.57;;
16029;SDS011;34770;49.272;11.070;2022-12-10T04:08:45;26.63;;;17.67;;
16029;SDS011;34770;49.272;11.070;2022-12-10T04:11:12;23.17;;;15.03;;
16029;SDS011;34770;49.272;11.070;2022-12-10T04:13:39;26.20;;;16.10;;
16029;SDS011;34770;49.272;11.070;2022-12-10T04:16:25;24.60;;;15.23;;
16029;SDS011;34770;49.272;11.070;2022-12-10T04:18:55;25.30;;;16.73;;
16029;SDS011;34770;49.272;11.070;2022-12-10T04:21:26;23.77;;;15.83;;
16029;SDS011;34770;49.272;11.070;2022-12-10T04:24:13;24.63;;;15.17;;
16029;SDS011;34770;49.272;11.070;2022-12-10T04:27:01;26.63;;;17.17;;
16029;SDS011;34770;49.272;11.070;2022-12-10T04:29:31;27.27;;;16.50;;
16029;SDS011;34770;49.272;11.070;2022-12-10T04:31:57;24.07;;;15.83;;
16029;SDS011;34770;49.272;11.070;2022-12-10T04:34:27;22.47;;;14.87;;
16029;SDS011;34770;49.272;11.070;2022-12-10T04:36:54;23.33;;;14.87;;
16029;SDS011;34770;49.272;11.070;2022-12-10T04:39:22;26.43;;;16.23;;
16029;SDS011;34770;49.272;11.070;2022-12-10T04:41:50;22.50;;;15.63;;
16029;SDS011;34770;49.272;11.070;2022-12-10T04:44:19;23.53;;;16.00;;
16029;SDS011;34770;49.272;11.070;2022-12-10T04:46:47;25.60;;;15.63;;
16029;SDS011;34770;49.272;11.070;2022-12-10T04:49:14;23.63;;;15.20;;
16029;SDS011;34770;49.272;11.070;2022-12-10T04:51:41;21.40;;;14.83;;
16029;SDS011;34770;49.272;11.070;2022-12-10T04:54:09;27.17;;;16.20;;
16029;SDS011;34770;49.272;11.070;2022-12-10T04:56:36;26.83;;;16.13;;
16029;SDS011;34770;49.272;11.070;2022-12-10T04:59:03;22.97;;;15.27;;
16029;SDS011;34770;49.272;11.070;2022-12-10T05:01:31;22.23;;;15.23;;
16029;SDS011;34770;49.272;11.070;2022-12-10T05:03:59;24.77;;;15.37;;
16029;SDS011;34770;49.272;11.070;2022-12-10T05:06:28;24.17;;;15.13;;
16029;SDS011;34770;49.272;11.070;2022-12-10T05:08:55;24.90;;;15.13;;
16029;SDS011;34770;49.272;11.070;2022-12-10T05:11:25;25.77;;;16.03;;
16029;SDS011;34770;49.272;11.070;2022-12-10T05:13:54;23.27;;;15.10;;
16029;SDS011;34770;49.272;11.070;2022-12-10T05:16:22;24.57;;;15.13;;
16029;SDS011;34770;49.272;11.070;2022-12-10T05:18:50;24.73;;;16.67;;
16029;SDS011;34770;49.272;11.070;2022-12-10T05:21:19;23.80;;;15.13;;
16029;SDS011;34770;49.272;11.070;2022-12-10T05:23:48;23.97;;;15.87;;
16029;SDS011;34770;49.272;11.070;2022-12-10T05:26:17;22.60;;;15.57;;
16029;SDS011;34770;49.272;11.070;2022-12-10T05:28:54;24.33;;;15.70;;
16029;SDS011;34770;49.272;11.070;2022-12-10T05:31:25;20.83;;;14.43;;
16029;SDS011;34770;49.272;11.070;2022-12-10T05:33:53;23.93;;;16.17;;
16029;SDS011;34770;49.272;11.070;2022-12-10T05:36:21;26.53;;;16.87;;
16029;SDS011;34770;49.272;11.070;2022-12-10T05:38:49;24.57;;;15.67;;
16029;SDS011;34770;49.272;11.070;2022-12-10T05:41:18;25.73;;;15.87;;
16029;SDS011;34770;49.272;11.070;2022-12-10T05:43:49;23.47;;;14.93;;
16029;SDS011;34770;49.272;11.070;2022-12-10T05:46:17;20.77;;;14.33;;
16029;SDS011;34770;49.272;11.070;2022-12-10T05:48:49;21.90;;;14.13;;
16029;SDS011;34770;49.272;11.070;2022-12-10T05:51:17;21.47;;;13.83;;
16029;SDS011;34770;49.272;11.070;2022-12-10T05:53:49;22.27;;;15.77;;
16029;SDS011;34770;49.272;11.070;2022-12-10T05:56:17;23.53;;;15.07;;
16029;SDS011;34770;49.272;11.070;2022-12-10T05:58:46;23.90;;;15.37;;
16029;SDS011;34770;49.272;11.070;2022-12-10T06:01:18;23.37;;;14.83;;
16029;SDS011;34770;49.272;11.070;2022-12-10T06:03:46;22.63;;;15.47;;
16029;SDS011;34770;49.272;11.070;2022-12-10T06:06:13;21.27;;;14.73;;
16029;SDS011;34770;49.272;11.070;2022-12-10T06:08:39;27.63;;;15.63;;
16029;SDS011;34770;49.272;11.070;2022-12-10T06:11:07;25.33;;;15.50;;
16029;SDS011;34770;49.272;11.070;2022-12-10T06:13:35;25.83;;;16.17;;
16029;SDS011;34770;49.272;11.070;2022-12-10T06:16:05;24.20;;;15.40;;
16029;SDS011;34770;49.272;11.070;2022-12-10T06:18:33;24.97;;;15.23;;
16029;SDS011;34770;49.272;11.070;2022-12-10T06:21:02;23.43;;;14.40;;
16029;SDS011;34770;49.272;11.070;2022-12-10T06:23:31;26.23;;;15.30;;
16029;SDS011;34770;49.272;11.070;2022-12-10T06:26:02;21.70;;;14.70;;
16029;SDS011;34770;49.272;11.070;2022-12-10T06:28:33;26.03;;;15.20;;
16029;SDS011;34770;49.272;11.070;2022-12-10T06:30:59;22.50;;;14.27;;
16029;SDS011;34770;49.272;11.070;2022-12-10T06:33:25;26.93;;;15.17;;
16029;SDS011;34770;49.272;11.070;2022-12-10T06:35:52;22.13;;;14.30;;
16029;SDS011;34770;49.272;11.070;2022-12-10T06:38:18;25.87;;;15.43;;
16029;SDS011;34770;49.272;11.070;2022-12-10T06:40:45;19.83;;;14.30;;
16029;SDS011;34770;49.272;11.070;2022-12-10T06:43:12;23.60;;;15.00;;
16029;SDS011;34770;49.272;11.070;2022-12-10T06:45:40;24.10;;;16.20;;
16029;SDS011;34770;49.272;11.070;2022-12-10T06:48:08;24.87;;;15.37;;
16029;SDS011;34770;49.272;11.070;2022-12-10T06:50:35;24.47;;;16.53;;
16029;SDS011;34770;49.272;11.070;2022-12-10T06:53:01;24.73;;;16.13;;
16029;SDS011;34770;49.272;11.070;2022-12-10T06:55:28;24.53;;;16.53;;
16029;SDS011;34770;49.272;11.070;2022-12-10T06:57:55;27.97;;;16.03;;
16029;SDS011;34770;49.272;11.070;2022-12-10T07:00:22;27.90;;;16.67;;
16029;SDS011;34770;49.272;11.070;2022-12-10T07:02:48;29.10;;;16.50;;
16029;SDS011;34770;49.272;11.070;2022-12-10T07:05:15;27.37;;;16.57;;
16029;SDS011;34770;49.272;11.070;2022-12-10T07:07:41;26.13;;;16.00;;
16029;SDS011;34770;49.272;11.070;2022-12-10T07:10:09;23.63;;;15.60;;
16029;SDS011;34770;49.272;11.070;2022-12-10T07:12:36;24.07;;;16.07;;
16029;SDS011;34770;49.272;11.070;2022-12-10T07:15:03;23.83;;;16.33;;
16029;SDS011;34770;49.272;11.070;2022-12-10T07:17:30;24.50;;;16.17;;
16029;SDS011;34770;49.272;11.070;2022-12-10T07:19:56;25.73;;;15.70;;
16029;SDS011;34770;49.272;11.070;2022-12-10T07:22:24;29.47;;;17.20;;
16029;SDS011;34770;49.272;11.070;2022-12-10T07:24:51;28.37;;;16.33;;
16029;SDS011;34770;49.272;11.070;2022-12-10T07:27:17;25.07;;;15.60;;
16029;SDS011;34770;49.272;11.070;2022-12-10T07:29:44;27.97;;;17.00;;
16029;SDS011;34770;49.272;11.070;2022-12-10T07:32:13;26.90;;;15.87;;
16029;SDS011;34770;49.272;11.070;2022-12-10T07:34:40;25.57;;;15.60;;
16029;SDS011;34770;49.272;11.070;2022-12-10T07:37:07;23.87;;;16.50;;
16029;SDS011;34770;49.272;11.070;2022-12-10T07:39:34;26.77;;;16.83;;
16029;SDS011;34770;49.272;11.070;2022-12-10T07:42:02;25.47;;;15.87;;
16029;SDS011;34770;49.272;11.070;2022-12-10T07:44:29;24.77;;;16.43;;
16029;SDS011;34770;49.272;11.070;2022-12-10T07:47:00;30.43;;;16.77;;
16029;SDS011;34770;49.272;11.070;2022-12-10T07:49:28;23.73;;;15.80;;
16029;SDS011;34770;49.272;11.070;2022-12-10T07:51:55;28.00;;;18.70;;
16029;SDS011;34770;49.272;11.070;2022-12-10T07:54:22;24.67;;;16.20;;
16029;SDS011;34770;49.272;11.070;2022-12-10T07:56:48;23.07;;;16.13;;
16029;SDS011;34770;49.272;11.070;2022-12-10T07:59:13;26.40;;;16.50;;
16029;SDS011;34770;49.272;11.070;2022-12-10T08:01:38;31.23;;;17.27;;
16029;SDS011;34770;49.272;11.070;2022-12-10T08:04:05;27.20;;;16.77;;
16029;SDS011;34770;49.272;11.070;2022-12-10T08:06:30;29.10;;;18.67;;
16029;SDS011;34770;49.272;11.070;2022-12-10T08:08:57;28.30;;;17.57;;
16029;SDS011;34770;49.272;11.070;2022-12-10T08:11:23;28.30;;;17.00;;
16029;SDS011;34770;49.272;11.070;2022-12-10T08:13:49;28.57;;;17.33;;
16029;SDS011;34770;49.272;11.070;2022-12-10T08:16:16;26.73;;;17.30;;
16029;SDS011;34770;49.272;11.070;2022-12-10T08:18:43;28.30;;;16.57;;
16029;SDS011;34770;49.272;11.070;2022-12-10T08:21:11;26.37;;;17.40;;
16029;SDS011;34770;49.272;11.070;2022-12-10T08:23:38;32.17;;;18.97;;
16029;SDS011;34770;49.272;11.070;2022-12-10T08:26:05;29.17;;;17.07;;
16029;SDS011;34770;49.272;11.070;2022-12-10T08:28:32;27.80;;;17.27;;
16029;SDS011;34770;49.272;11.070;2022-12-10T08:30:58;30.17;;;18.23;;
16029;SDS011;34770;49.272;11.070;2022-12-10T08:33:23;26.43;;;17.77;;
16029;SDS011;34770;49.272;11.070;2022-12-10T08:35:49;27.63;;;17.50;;
16029;SDS011;34770;49.272;11.070;2022-12-10T08:38:14;27.60;;;17.00;;
16029;SDS011;34770;49.272;11.070;2022-12-10T08:40:40;27.20;;;17.80;;
16029;SDS011;34770;49.272;11.070;2022-12-10T08:43:06;32.37;;;18.20;;
16029;SDS011;34770;49.272;11.070;2022-12-10T08:45:33;27.60;;;19.10;;
16029;SDS011;34770;49.272;11.070;2022-12-10T08:47:59;28.57;;;18.00;;
16029;SDS011;34770;49.272;11.070;2022-12-10T08:50:25;24.17;;;17.00;;
16029;SDS011;34770;49.272;11.070;2022-12-10T08:52:51;31.53;;;19.73;;
16029;SDS011;34770;49.272;11.070;2022-12-10T08:55:17;28.47;;;17.80;;
16029;SDS011;34770;49.272;11.070;2022-12-10T08:57:42;24.80;;;17.13;;
16029;SDS011;34770;49.272;11.070;2022-12-10T09:00:07;29.37;;;19.13;;
16029;SDS011;34770;49.272;11.070;2022-12-10T09:02:33;31.47;;;17.43;;
16029;SDS011;34770;49.272;11.070;2022-12-10T09:04:59;30.40;;;18.87;;
16029;SDS011;34770;49.272;11.070;2022-12-10T09:07:24;28.53;;;19.00;;
16029;SDS011;34770;49.272;11.070;2022-12-10T09:09:49;32.30;;;19.23;;
16029;SDS011;34770;49.272;11.070;2022-12-10T09:12:15;31.03;;;19.70;;
16029;SDS011;34770;49.272;11.070;2022-12-10T09:14:40;34.90;;;18.93;;
16029;SDS011;34770;49.272;11.070;2022-12-10T09:17:07;26.50;;;17.27;;
16029;SDS011;34770;49.272;11.070;2022-12-10T09:19:32;30.33;;;18.87;;
16029;SDS011;34770;49.272;11.070;2022-12-10T09:21:58;30.40;;;17.57;;
16029;SDS011;34770;49.272;11.070;2022-12-10T09:24:24;30.17;;;19.53;;
16029;SDS011;34770;49.272;11.070;2022-12-10T09:26:49;29.33;;;17.60;;
16029;SDS011;34770;49.272;11.070;2022-12-10T09:29:14;27.27;;;17.73;;
16029;SDS011;34770;49.272;11.070;2022-12-10T09:31:40;31.80;;;19.37;;
16029;SDS011;34770;49.272;11.070;2022-12-10T09:34:05;31.60;;;19.10;;
16029;SDS011;34770;49.272;11.070;2022-12-10T09:36:30;29.17;;;17.77;;
16029;SDS011;34770;49.272;11.070;2022-12-10T09:38:56;27.07;;;18.10;;
16029;SDS011;34770;49.272;11.070;2022-12-10T09:44:55;31.07;;;16.87;;
16029;SDS011;34770;49.272;11.070;2022-12-10T09:47:18;28.57;;;17.90;;
16029;SDS011;34770;49.272;11.070;2022-12-10T09:49:58;31.40;;;19.30;;
16029;SDS011;34770;49.272;11.070;2022-12-10T09:52:39;33.00;;;18.77;;
16029;SDS011;34770;49.272;11.070;2022-12-10T09:55:11;29.63;;;18.23;;
16029;SDS011;34770;49.272;11.070;2022-12-10T09:57:59;27.53;;;19.57;;
16029;SDS011;34770;49.272;11.070;2022-12-10T10:00:30;30.43;;;18.40;;
16029;SDS011;34770;49.272;11.070;2022-12-10T10:03:00;31.47;;;18.30;;
16029;SDS011;34770;49.272;11.070;2022-12-10T10:05:27;30.80;;;19.73;;
16029;SDS011;34770;49.272;11.070;2022-12-10T10:08:03;33.23;;;19.57;;
16029;SDS011;34770;49.272;11.070;2022-12-10T10:10:39;31.57;;;18.60;;
16029;SDS011;34770;49.272;11.070;2022-12-10T10:15:32;32.00;;;18.13;;
16029;SDS011;34770;49.272;11.070;2022-12-10T10:18:02;31.40;;;19.47;;
16029;SDS011;34770;49.272;11.070;2022-12-10T10:20:41;29.50;;;18.40;;
16029;SDS011;34770;49.272;11.070;2022-12-10T10:23:07;27.47;;;18.63;;
16029;SDS011;34770;49.272;11.070;2022-12-10T10:25:37;25.30;;;16.90;;
16029;SDS011;34770;49.272;11.070;2022-12-10T10:28:03;29.27;;;18.30;;
16029;SDS011;34770;49.272;11.070;2022-12-10T10:30:28;31.37;;;17.80;;
16029;SDS011;34770;49.272;11.070;2022-12-10T10:32:55;26.57;;;17.20;;
16029;SDS011;34770;49.272;11.070;2022-12-10T10:35:32;28.10;;;17.20;;
16029;SDS011;34770;49.272;11.070;2022-12-10T10:38:06;29.43;;;18.37;;
16029;SDS011;34770;49.272;11.070;2022-12-10T10:40:39;27.90;;;18.70;;
16029;SDS011;34770;49.272;11.070;2022-12-10T10:43:08;27.63;;;17.63;;
16029;SDS011;34770;49.272;11.070;2022-12-10T10:45:41;29.60;;;19.17;;
16029;SDS011;34770;49.272;11.070;2022-12-10T10:48:13;26.63;;;17.77;;
16029;SDS011;34770;49.272;11.070;2022-12-10T10:50:51;27.53;;;18.70;;
16029;SDS011;34770;49.272;11.070;2022-12-10T10:55:58;30.90;;;18.07;;
16029;SDS011;34770;49.272;11.070;2022-12-10T10:58:30;28.63;;;17.63;;
16029;SDS011;34770;49.272;11.070;2022-12-10T11:01:00;30.13;;;18.50;;
16029;SDS011;34770;49.272;11.070;2022-12-10T11:03:33;28.03;;;17.40;;
16029;SDS011;34770;49.272;11.070;2022-12-10T11:06:00;30.50;;;18.47;;
16029;SDS011;34770;49.272;11.070;2022-12-10T11:08:30;30.03;;;19.17;;
16029;SDS011;34770;49.272;11.070;2022-12-10T11:11:03;26.57;;;17.37;;
16029;SDS011;34770;49.272;11.070;2022-12-10T11:13:34;30.30;;;17.80;;
16029;SDS011;34770;49.272;11.070;2022-12-10T11:16:02;28.10;;;18.13;;
16029;SDS011;34770;49.272;11.070;2022-12-10T11:18:36;27.33;;;19.50;;
16029;SDS011;34770;49.272;11.070;2022-12-10T11:21:17;27.77;;;18.27;;
16029;SDS011;34770;49.272;11.070;2022-12-10T11:23:47;23.13;;;15.63;;
16029;SDS011;34770;49.272;11.070;2022-12-10T11:34:01;28.30;;;16.83;;
16029;SDS011;34770;49.272;11.070;2022-12-10T11:36:33;27.57;;;17.70;;
16029;SDS011;34770;49.272;11.070;2022-12-10T11:44:42;30.07;;;18.80;;
16029;SDS011;34770;49.272;11.070;2022-12-10T11:52:57;30.70;;;17.30;;
16029;SDS011;34770;49.272;11.070;2022-12-10T12:02:06;25.43;;;16.77;;
16029;SDS011;34770;49.272;11.070;2022-12-10T12:16:14;24.50;;;16.90;;
16029;SDS011;34770;49.272;11.070;2022-12-10T12:21:25;27.47;;;17.93;;
16029;SDS011;34770;49.272;11.070;2022-12-10T12:26:38;26.13;;;16.67;;
16029;SDS011;34770;49.272;11.070;2022-12-10T12:35:20;25.67;;;14.33;;
16029;SDS011;34770;49.272;11.070;2022-12-10T12:37:57;26.23;;;15.87;;
16029;SDS011;34770;49.272;11.070;2022-12-10T12:40:29;28.30;;;17.23;;
16029;SDS011;34770;49.272;11.070;2022-12-10T12:43:02;25.33;;;16.87;;
16029;SDS011;34770;49.272;11.070;2022-12-10T12:45:38;27.23;;;16.83;;
16029;SDS011;34770;49.272;11.070;2022-12-10T12:53:25;27.10;;;17.57;;
16029;SDS011;34770;49.272;11.070;2022-12-10T12:58:47;28.60;;;18.27;;
16029;SDS011;34770;49.272;11.070;2022-12-10T13:03:53;30.17;;;19.17;;
16029;SDS011;34770;49.272;11.070;2022-12-10T13:06:25;28.87;;;18.57;;
16029;SDS011;34770;49.272;11.070;2022-12-10T13:11:36;29.13;;;18.77;;
16029;SDS011;34770;49.272;11.070;2022-12-10T13:14:04;33.50;;;19.60;;
16029;SDS011;34770;49.272;11.070;2022-12-10T13:24:22;33.93;;;19.87;;
16029;SDS011;34770;49.272;11.070;2022-12-10T13:29:51;34.30;;;21.77;;
16029;SDS011;34770;49.272;11.070;2022-12-10T13:32:23;36.53;;;20.53;;
16029;SDS011;34770;49.272;11.070;2022-12-10T13:37:32;35.70;;;20.93;;
16029;SDS011;34770;49.272;11.070;2022-12-10T13:49:18;36.43;;;21.97;;
16029;SDS011;34770;49.272;11.070;2022-12-10T13:57:19;42.67;;;22.87;;
16029;SDS011;34770;49.272;11.070;2022-12-10T14:00:18;37.70;;;20.67;;
16029;SDS011;34770;49.272;11.070;2022-12-10T14:06:00;43.97;;;24.33;;
16029;SDS011;34770;49.272;11.070;2022-12-10T14:08:41;40.57;;;22.23;;
16029;SDS011;34770;49.272;11.070;2022-12-10T14:11:23;42.27;;;25.27;;
16029;SDS011;34770;49.272;11.070;2022-12-10T14:13:54;43.37;;;25.43;;
16029;SDS011;34770;49.272;11.070;2022-12-10T14:16:26;48.10;;;26.33;;
16029;SDS011;34770;49.272;11.070;2022-12-10T14:18:58;38.50;;;23.83;;
16029;SDS011;34770;49.272;11.070;2022-12-10T14:21:26;37.90;;;21.27;;
16029;SDS011;34770;49.272;11.070;2022-12-10T14:23:56;37.23;;;21.67;;
16029;SDS011;34770;49.272;11.070;2022-12-10T14:26:40;40.07;;;24.83;;
16029;SDS011;34770;49.272;11.070;2022-12-10T14:29:17;41.73;;;21.90;;
16029;SDS011;34770;49.272;11.070;2022-12-10T14:31:46;40.03;;;24.70;;
16029;SDS011;34770;49.272;11.070;2022-12-10T14:34:15;37.93;;;22.43;;
16029;SDS011;34770;49.272;11.070;2022-12-10T14:36:45;35.23;;;22.13;;
16029;SDS011;34770;49.272;11.070;2022-12-10T14:39:17;40.73;;;22.83;;
16029;SDS011;34770;49.272;11.070;2022-12-10T14:41:46;41.03;;;22.97;;
16029;SDS011;34770;49.272;11.070;2022-12-10T14:44:14;41.00;;;24.57;;
16029;SDS011;34770;49.272;11.070;2022-12-10T14:46:41;39.23;;;21.97;;
16029;SDS011;34770;49.272;11.070;2022-12-10T14:49:15;48.80;;;28.37;;
16029;SDS011;34770;49.272;11.070;2022-12-10T14:51:51;37.87;;;21.73;;
16029;SDS011;34770;49.272;11.070;2022-12-10T14:54:34;41.43;;;22.50;;
16029;SDS011;34770;49.272;11.070;2022-12-10T14:57:04;35.77;;;20.50;;
16029;SDS011;34770;49.272;11.070;2022-12-10T14:59:35;33.80;;;20.63;;
16029;SDS011;34770;49.272;11.070;2022-12-10T15:02:10;46.60;;;22.60;;
16029;SDS011;34770;49.272;11.070;2022-12-10T15:04:43;37.40;;;21.97;;
16029;SDS011;34770;49.272;11.070;2022-12-10T15:07:18;34.93;;;22.00;;
16029;SDS011;34770;49.272;11.070;2022-12-10T15:09:48;34.50;;;19.40;;
16029;SDS011;34770;49.272;11.070;2022-12-10T15:15:01;38.73;;;22.00;;
16029;SDS011;34770;49.272;11.070;2022-12-10T15:17:33;36.80;;;22.40;;
16029;SDS011;34770;49.272;11.070;2022-12-10T15:20:17;31.73;;;21.17;;
16029;SDS011;34770;49.272;11.070;2022-12-10T15:22:54;32.90;;;21.20;;
16029;SDS011;34770;49.272;11.070;2022-12-10T15:25:27;32.80;;;20.47;;
16029;SDS011;34770;49.272;11.070;2022-12-10T15:27:54;32.83;;;20.10;;
16029;SDS011;34770;49.272;11.070;2022-12-10T15:30:32;31.20;;;20.47;;
16029;SDS011;34770;49.272;11.070;2022-12-10T15:32:59;31.90;;;19.40;;
16029;SDS011;34770;49.272;11.070;2022-12-10T15:35:25;34.83;;;20.93;;
16029;SDS011;34770;49.272;11.070;2022-12-10T15:37:50;34.43;;;21.53;;
16029;SDS011;34770;49.272;11.070;2022-12-10T15:40:30;38.37;;;21.90;;
16029;SDS011;34770;49.272;11.070;2022-12-10T15:42:56;35.97;;;22.97;;
16029;SDS011;34770;49.272;11.070;2022-12-10T15:45:38;37.23;;;19.87;;
16029;SDS011;34770;49.272;11.070;2022-12-10T15:48:07;32.03;;;21.00;;
16029;SDS011;34770;49.272;11.070;2022-12-10T15:50:35;32.33;;;18.60;;
16029;SDS011;34770;49.272;11.070;2022-12-10T15:53:01;33.50;;;18.37;;
16029;SDS011;34770;49.272;11.070;2022-12-10T15:55:26;29.20;;;19.67;;
16029;SDS011;34770;49.272;11.070;2022-12-10T15:57:52;31.33;;;20.17;;
16029;SDS011;34770;49.272;11.070;2022-12-10T16:02:48;31.67;;;19.57;;
16029;SDS011;34770;49.272;11.070;2022-12-10T16:05:25;32.03;;;20.20;;
16029;SDS011;34770;49.272;11.070;2022-12-10T16:07:54;30.57;;;16.93;;
16029;SDS011;34770;49.272;11.070;2022-12-10T16:10:23;25.00;;;16.87;;
16029;SDS011;34770;49.272;11.070;2022-12-10T16:13:03;33.37;;;17.97;;
16029;SDS011;34770;49.272;11.070;2022-12-10T16:15:32;23.53;;;15.33;;
16029;SDS011;34770;49.272;11.070;2022-12-10T16:18:04;28.90;;;17.70;;
16029;SDS011;34770;49.272;11.070;2022-12-10T16:20:34;27.70;;;18.23;;
16029;SDS011;34770;49.272;11.070;2022-12-10T16:22:59;29.67;;;18.87;;
16029;SDS011;34770;49.272;11.070;2022-12-10T16:25:26;29.63;;;18.20;;